createdAt,value
2019-04-26T00:02:48.229Z,45.17
2019-04-26T00:05:55.816Z,41.20
2019-04-26T00:09:18.823Z,36.70
2019-04-26T00:12:39.138Z,38.63
2019-04-26T00:15:56.671Z,36.47
2019-04-26T00:19:04.218Z,34.73
2019-04-26T00:22:12.983Z,29.43
2019-04-26T00:25:20.857Z,35.27
2019-04-26T00:28:28.387Z,34.83
2019-04-26T00:31:35.997Z,32.90
2019-04-26T00:34:43.913Z,39.57
2019-04-26T00:37:51.513Z,33.50
2019-04-26T00:40:59.961Z,33.07
2019-04-26T00:44:07.546Z,36.77
2019-04-26T00:47:16.973Z,38.47
2019-04-26T00:50:24.927Z,25.10
2019-04-26T00:53:35.578Z,35.90
2019-04-26T00:56:43.490Z,34.53
2019-04-26T00:59:52.216Z,37.20
2019-04-26T01:03:00.051Z,40.20
2019-04-26T01:06:10.210Z,35.23
2019-04-26T01:09:17.699Z,25.87
2019-04-26T01:12:26.027Z,32.50
2019-04-26T01:15:33.730Z,40.47
2019-04-26T01:18:41.924Z,36.10
2019-04-26T01:21:53.921Z,39.23
2019-04-26T01:25:03.476Z,32.20
2019-04-26T01:28:14.943Z,42.10
2019-04-26T01:31:22.530Z,35.47
2019-04-26T01:34:31.111Z,35.97
2019-04-26T01:37:41.861Z,32.70
2019-04-26T01:40:51.814Z,36.30
2019-04-26T01:44:10.830Z,39.67
2019-04-26T01:47:20.762Z,36.47
2019-04-26T01:50:31.670Z,35.50
2019-04-26T01:53:39.359Z,50.33
2019-04-26T01:56:48.577Z,38.33
2019-04-26T02:00:00.335Z,42.70
2019-04-26T02:03:16.932Z,33.63
2019-04-26T02:06:28.772Z,33.10
2019-04-26T02:09:35.387Z,35.50
2019-04-26T02:12:46.532Z,39.53
2019-04-26T02:15:54.245Z,29.03
2019-04-26T02:19:01.922Z,28.07
2019-04-26T02:22:34.146Z,31.13
2019-04-26T02:25:41.711Z,32.07
2019-04-26T02:28:50.551Z,26.27
2019-04-26T02:32:05.436Z,30.30
2019-04-26T02:35:13.151Z,30.90
2019-04-26T02:38:22.414Z,28.13
2019-04-26T02:41:32.059Z,30.20
2019-04-26T02:44:51.572Z,28.27
2019-04-26T02:48:23.481Z,34.63
2019-04-26T02:51:38.196Z,33.17
2019-04-26T02:55:02.768Z,25.80
2019-04-26T02:58:12.237Z,27.40
2019-04-26T03:01:20.176Z,34.80
2019-04-26T03:04:30.968Z,30.20
2019-04-26T03:07:45.645Z,29.20
2019-04-26T03:11:07.298Z,31.90
2019-04-26T03:14:37.063Z,35.13
2019-04-26T03:18:00.181Z,38.23
2019-04-26T03:21:15.686Z,32.43
2019-04-26T03:24:28.577Z,36.07
2019-04-26T03:28:12.359Z,28.10
2019-04-26T03:31:52.455Z,33.70
2019-04-26T03:35:22.180Z,31.57
2019-04-26T03:38:43.633Z,26.27
2019-04-26T03:42:22.406Z,25.10
2019-04-26T03:45:53.658Z,33.27
2019-04-26T03:49:36.131Z,31.33
2019-04-26T03:53:21.126Z,36.53
2019-04-26T03:56:45.515Z,33.47
2019-04-26T04:00:41.331Z,35.50
2019-04-26T04:03:57.465Z,34.27
2019-04-26T04:07:07.695Z,44.60
2019-04-26T04:10:20.319Z,52.83
2019-04-26T04:14:02.728Z,45.20
2019-04-26T04:17:29.951Z,45.77
2019-04-26T04:21:38.853Z,36.30
2019-04-26T04:24:53.296Z,34.90
2019-04-26T04:28:06.855Z,29.40
2019-04-26T04:31:20.171Z,29.93
2019-04-26T04:34:40.126Z,23.53
2019-04-26T04:38:08.641Z,29.60
2019-04-26T04:41:21.719Z,30.83
2019-04-26T04:44:39.024Z,29.23
2019-04-26T04:48:37.636Z,31.00
2019-04-26T04:52:11.956Z,31.23
2019-04-26T04:55:25.942Z,38.60
2019-04-26T04:58:42.976Z,24.93
2019-04-26T05:02:21.913Z,22.50
2019-04-26T05:05:56.992Z,23.83
2019-04-26T05:09:13.871Z,27.27
2019-04-26T05:12:34.973Z,32.50
2019-04-26T05:16:40.434Z,35.90
2019-04-26T05:20:38.348Z,34.43
2019-04-26T05:24:05.306Z,33.73
2019-04-26T05:27:58.515Z,28.13
2019-04-26T05:31:30.939Z,37.03
2019-04-26T05:34:50.980Z,28.77
2019-04-26T05:38:18.057Z,24.80
2019-04-26T05:41:39.219Z,36.77
2019-04-26T05:46:06.554Z,29.07
2019-04-26T05:50:03.792Z,25.90
2019-04-26T05:54:14.900Z,30.40
2019-04-26T05:58:10.013Z,29.60
2019-04-26T06:02:30.828Z,31.33
2019-04-26T06:06:13.805Z,29.00
2019-04-26T06:10:05.336Z,29.10
2019-04-26T06:13:38.996Z,29.87
2019-04-26T06:17:44.280Z,29.93
2019-04-26T06:21:11.370Z,28.30
2019-04-26T06:24:38.330Z,24.10
2019-04-26T06:28:06.587Z,24.80
2019-04-26T06:31:39.174Z,20.93
2019-04-26T06:35:01.664Z,23.93
2019-04-26T06:39:02.412Z,17.83
2019-04-26T06:43:03.686Z,15.43
2019-04-26T06:47:03.905Z,17.30
2019-04-26T06:50:32.091Z,15.70
2019-04-26T06:53:47.159Z,9.90
2019-04-26T06:57:59.994Z,25.60
2019-04-26T07:01:46.106Z,15.80
2019-04-26T07:05:23.553Z,20.27
2019-04-26T07:08:57.760Z,20.10
2019-04-26T07:12:36.485Z,10.53
2019-04-26T07:16:22.839Z,14.27
2019-04-26T07:20:25.130Z,9.83
2019-04-26T07:24:23.650Z,12.23
2019-04-26T07:28:03.644Z,12.23
2019-04-26T07:31:38.794Z,9.07
2019-04-26T07:35:00.973Z,10.93
2019-04-26T07:39:29.673Z,15.40
2019-04-26T07:42:56.555Z,12.97
2019-04-26T07:46:45.626Z,11.93
2019-04-26T07:50:41.456Z,10.00
2019-04-26T07:54:19.164Z,18.37
2019-04-26T07:57:48.659Z,10.37
2019-04-26T08:01:17.098Z,8.67
2019-04-26T08:04:34.439Z,11.10
2019-04-26T08:07:47.538Z,15.73
2019-04-26T08:11:06.106Z,10.20
2019-04-26T08:14:17.910Z,9.27
2019-04-26T08:17:40.141Z,15.40
2019-04-26T08:21:06.831Z,6.70
2019-04-26T08:24:21.478Z,11.50
2019-04-26T08:27:32.537Z,12.27
2019-04-26T08:30:46.237Z,8.27
2019-04-26T08:34:01.355Z,6.70
2019-04-26T08:37:21.066Z,9.27
2019-04-26T08:40:31.472Z,8.50
2019-04-26T08:44:14.715Z,11.03
2019-04-26T08:47:57.155Z,9.60
2019-04-26T08:51:11.377Z,11.00
2019-04-26T08:54:24.423Z,9.63
2019-04-26T08:57:35.559Z,8.73
2019-04-26T09:01:10.472Z,7.43
2019-04-26T09:04:39.476Z,9.10
2019-04-26T09:07:49.626Z,6.73
2019-04-26T09:11:00.935Z,7.60
2019-04-26T09:14:09.419Z,13.23
2019-04-26T09:17:17.054Z,11.90
2019-04-26T09:20:28.932Z,11.30
2019-04-26T09:23:52.178Z,4.40
2019-04-26T09:27:20.974Z,10.30
2019-04-26T09:30:34.368Z,10.00
2019-04-26T09:33:51.439Z,5.40
2019-04-26T09:36:59.053Z,9.80
2019-04-26T09:40:10.409Z,7.80
2019-04-26T09:43:26.598Z,9.53
2019-04-26T09:47:04.975Z,9.63
2019-04-26T09:50:26.048Z,9.90
2019-04-26T09:53:33.559Z,8.20
2019-04-26T09:56:41.508Z,9.43
2019-04-26T09:59:49.043Z,12.50
2019-04-26T10:02:58.700Z,8.73
2019-04-26T10:06:08.142Z,6.40
2019-04-26T10:09:21.398Z,9.03
2019-04-26T10:12:39.938Z,10.23
2019-04-26T10:15:58.097Z,7.60
2019-04-26T10:19:09.347Z,14.13
2019-04-26T10:22:18.775Z,9.70
2019-04-26T10:25:28.625Z,10.10
2019-04-26T10:28:36.161Z,11.63
2019-04-26T10:31:47.566Z,6.70
2019-04-26T10:34:53.285Z,6.87
2019-04-26T10:38:00.952Z,6.80
2019-04-26T10:41:09.212Z,9.97
2019-04-26T10:44:16.910Z,7.90
2019-04-26T10:47:26.520Z,17.27
2019-04-26T10:50:34.454Z,6.23
2019-04-26T10:54:07.716Z,8.70
2019-04-26T10:57:27.432Z,7.50
2019-04-26T11:00:39.174Z,6.40
2019-04-26T11:03:47.840Z,7.47
2019-04-26T11:06:58.107Z,11.70
2019-04-26T11:10:06.289Z,5.00
2019-04-26T11:13:13.867Z,6.27
2019-04-26T11:16:21.708Z,7.43
2019-04-26T11:19:32.009Z,8.40
2019-04-26T11:22:39.556Z,7.70
2019-04-26T11:25:47.168Z,11.50
2019-04-26T11:28:55.655Z,10.23
2019-04-26T11:32:04.267Z,9.30
2019-04-26T11:35:12.122Z,11.23
2019-04-26T11:38:21.754Z,8.20
2019-04-26T11:41:29.084Z,7.57
2019-04-26T11:44:37.678Z,9.93
2019-04-26T11:47:55.512Z,10.83
2019-04-26T11:50:54.284Z,17.90
2019-04-26T11:54:01.957Z,10.30
2019-04-26T11:57:12.183Z,8.50
2019-04-26T12:00:33.104Z,9.43
2019-04-26T12:03:42.965Z,11.47
2019-04-26T12:06:57.619Z,7.80
2019-04-26T12:10:09.832Z,7.20
2019-04-26T12:13:15.611Z,13.90
2019-04-26T12:16:23.172Z,9.17
2019-04-26T12:19:30.786Z,9.30
2019-04-26T12:22:39.402Z,14.57
2019-04-26T12:25:48.225Z,11.43
2019-04-26T12:28:55.844Z,11.53
2019-04-26T12:32:03.449Z,14.30
2019-04-26T12:35:11.174Z,12.70
2019-04-26T12:38:20.342Z,13.50
2019-04-26T12:41:39.769Z,9.10
2019-04-26T12:44:44.960Z,13.70
2019-04-26T12:47:55.376Z,8.80
2019-04-26T12:51:02.940Z,16.03
2019-04-26T12:54:10.805Z,12.33
2019-04-26T12:57:18.847Z,11.67
2019-04-26T13:00:32.919Z,16.80
2019-04-26T13:03:40.142Z,12.73
2019-04-26T13:06:56.951Z,14.60
2019-04-26T13:10:22.221Z,10.57
2019-04-26T13:13:43.355Z,15.60
2019-04-26T13:17:13.424Z,8.60
2019-04-26T13:20:24.457Z,15.47
2019-04-26T13:23:31.283Z,12.37
2019-04-26T13:26:39.026Z,11.43
2019-04-26T13:29:48.236Z,14.63
2019-04-26T13:32:55.904Z,13.33
2019-04-26T13:36:03.547Z,19.00
2019-04-26T13:39:17.464Z,15.53
2019-04-26T13:42:23.081Z,22.37
2019-04-26T13:45:39.144Z,12.03
2019-04-26T13:49:14.272Z,15.40
2019-04-26T13:52:22.826Z,13.47
2019-04-26T13:55:30.597Z,20.50
2019-04-26T13:58:39.368Z,21.27
2019-04-26T14:01:47.453Z,18.23
2019-04-26T14:04:55.086Z,19.37
2019-04-26T14:08:02.705Z,17.23
2019-04-26T14:11:11.510Z,20.33
2019-04-26T14:14:20.350Z,21.27
2019-04-26T14:17:29.708Z,21.67
2019-04-26T14:20:37.201Z,19.57
2019-04-26T14:23:53.098Z,13.00
2019-04-26T14:27:10.356Z,25.00
2019-04-26T14:30:17.836Z,23.37
2019-04-26T14:33:27.147Z,15.83
2019-04-26T14:36:35.169Z,13.27
2019-04-26T14:39:50.693Z,17.93
2019-04-26T14:43:06.109Z,23.10
2019-04-26T14:46:04.287Z,15.03
2019-04-26T14:49:12.061Z,30.03
2019-04-26T14:52:19.690Z,21.70
2019-04-26T14:55:27.240Z,23.80
2019-04-26T14:58:35.881Z,20.20
2019-04-26T15:02:02.524Z,19.87
2019-04-26T15:05:30.131Z,19.13
2019-04-26T15:08:40.534Z,21.60
2019-04-26T15:11:55.349Z,21.60
2019-04-26T15:14:57.146Z,20.73
2019-04-26T15:18:05.265Z,23.60
2019-04-26T15:21:14.269Z,21.30
2019-04-26T15:24:22.621Z,23.50
2019-04-26T15:27:32.156Z,23.70
2019-04-26T15:30:46.398Z,20.07
2019-04-26T15:33:52.831Z,16.83
2019-04-26T15:37:00.854Z,23.77
2019-04-26T15:40:16.749Z,23.63
2019-04-26T15:43:32.711Z,22.20
2019-04-26T15:47:05.864Z,23.73
2019-04-26T15:50:29.824Z,25.63
2019-04-26T15:53:37.570Z,27.07
2019-04-26T15:56:45.250Z,23.53
2019-04-26T15:59:54.463Z,24.63
2019-04-26T16:03:07.143Z,29.43
2019-04-26T16:06:13.577Z,31.60
2019-04-26T16:09:22.987Z,26.50
2019-04-26T16:12:32.106Z,23.70
2019-04-26T16:15:43.618Z,29.00
2019-04-26T16:18:54.889Z,28.40
2019-04-26T16:21:59.422Z,36.23
2019-04-26T16:25:07.828Z,22.47
2019-04-26T16:28:38.261Z,29.30
2019-04-26T16:32:05.360Z,32.20
2019-04-26T16:35:13.468Z,30.40
2019-04-26T16:38:35.362Z,28.00
2019-04-26T16:41:43.235Z,21.70
2019-04-26T16:44:53.125Z,35.93
2019-04-26T16:48:02.148Z,31.27
2019-04-26T16:51:10.100Z,27.37
2019-04-26T16:54:21.881Z,30.93
2019-04-26T16:57:27.556Z,23.23
2019-04-26T17:00:50.065Z,38.60
2019-04-26T17:03:48.154Z,39.07
2019-04-26T17:06:54.844Z,27.13
2019-04-26T17:10:03.159Z,34.40
2019-04-26T17:13:13.273Z,29.60
2019-04-26T17:16:22.415Z,31.80
2019-04-26T17:19:34.250Z,35.63
2019-04-26T17:22:59.394Z,34.97
2019-04-26T17:26:29.325Z,34.00
2019-04-26T17:29:36.783Z,34.77
2019-04-26T17:32:47.604Z,33.67
2019-04-26T17:35:53.908Z,27.83
2019-04-26T17:39:01.645Z,38.20
2019-04-26T17:42:10.972Z,32.63
2019-04-26T17:45:21.270Z,30.67
2019-04-26T17:48:30.519Z,25.90
2019-04-26T17:51:42.394Z,24.90
2019-04-26T17:54:49.623Z,30.67
2019-04-26T17:58:11.407Z,37.23
2019-04-26T18:01:08.134Z,26.73
2019-04-26T18:04:16.050Z,33.87
2019-04-26T18:07:39.717Z,27.40
2019-04-26T18:10:35.603Z,28.47
2019-04-26T18:13:43.246Z,35.13
2019-04-26T18:17:01.399Z,31.37
2019-04-26T18:20:41.408Z,30.53
2019-04-26T18:23:54.729Z,30.40
2019-04-26T18:27:00.574Z,33.90
2019-04-26T18:30:13.560Z,42.70
2019-04-26T18:33:22.502Z,33.17
2019-04-26T18:36:31.942Z,28.33
2019-04-26T18:39:38.455Z,32.50
2019-04-26T18:42:46.106Z,29.87
2019-04-26T18:45:58.643Z,30.43
2019-04-26T18:49:05.302Z,34.47
2019-04-26T18:52:13.669Z,43.27
2019-04-26T18:55:29.280Z,35.53
2019-04-26T18:58:37.926Z,44.83
2019-04-26T19:01:46.900Z,38.07
2019-04-26T19:04:57.300Z,29.00
2019-04-26T19:08:07.355Z,32.80
2019-04-26T19:11:15.323Z,37.90
2019-04-26T19:15:03.313Z,31.97
2019-04-26T19:18:11.832Z,31.20
2019-04-26T19:21:40.257Z,39.83
2019-04-26T19:24:49.366Z,28.03
2019-04-26T19:27:58.948Z,37.07
2019-04-26T19:31:06.693Z,24.63
2019-04-26T19:34:14.504Z,31.90
2019-04-26T19:37:23.419Z,32.80
2019-04-26T19:40:31.299Z,28.23
2019-04-26T19:43:42.960Z,32.20
2019-04-26T19:47:08.689Z,30.60
2019-04-26T19:50:28.519Z,31.53
2019-04-26T19:53:47.303Z,29.00
2019-04-26T19:57:06.209Z,32.65
2019-04-26T20:00:15.399Z,36.43
2019-04-26T20:03:23.333Z,35.37
2019-04-26T20:06:32.263Z,31.67
2019-04-26T20:09:41.981Z,30.90
2019-04-26T20:12:52.750Z,26.87
2019-04-26T20:16:02.716Z,30.73
2019-04-26T20:19:15.134Z,30.20
2019-04-26T20:22:22.159Z,33.23
2019-04-26T20:25:29.966Z,29.97
2019-04-26T20:28:38.213Z,33.43
2019-04-26T20:32:21.173Z,32.37
2019-04-26T20:35:28.388Z,29.57
2019-04-26T20:38:45.590Z,27.33
2019-04-26T20:41:46.086Z,35.83
2019-04-26T20:44:54.157Z,26.20
2019-04-26T20:48:02.390Z,29.80
2019-04-26T20:51:10.844Z,28.63
2019-04-26T20:54:19.704Z,31.77
2019-04-26T20:57:31.347Z,29.90
2019-04-26T21:00:37.919Z,25.43
2019-04-26T21:03:47.207Z,28.43
2019-04-26T21:06:54.925Z,26.17
2019-04-26T21:10:05.158Z,32.80
2019-04-26T21:13:15.314Z,30.03
2019-04-26T21:16:23.145Z,33.70
2019-04-26T21:19:32.752Z,27.03
2019-04-26T21:22:41.929Z,23.67
2019-04-26T21:26:24.374Z,23.80
2019-04-26T21:29:43.518Z,28.40
2019-04-26T21:33:06.431Z,26.10
2019-04-26T21:36:25.023Z,32.37
2019-04-26T21:39:39.399Z,31.27
2019-04-26T21:42:47.335Z,28.87
2019-04-26T21:46:07.105Z,30.83
2019-04-26T21:49:05.421Z,30.80
2019-04-26T21:52:13.643Z,27.00
2019-04-26T21:55:21.505Z,30.83
2019-04-26T21:58:29.326Z,33.03
2019-04-26T22:01:37.171Z,41.77
2019-04-26T22:04:46.351Z,29.27
2019-04-26T22:07:54.223Z,22.40
2019-04-26T22:11:03.570Z,27.57
2019-04-26T22:14:20.065Z,37.77
2019-04-26T22:17:36.258Z,26.77
2019-04-26T22:21:00.068Z,33.90
2019-04-26T22:24:13.269Z,29.27
2019-04-26T22:27:21.853Z,27.30
2019-04-26T22:30:30.415Z,25.33
2019-04-26T22:33:38.679Z,24.40
2019-04-26T22:36:46.671Z,42.40
2019-04-26T22:39:54.951Z,29.60
2019-04-26T22:43:27.305Z,38.27
2019-04-26T22:47:03.628Z,32.47
2019-04-26T22:50:15.645Z,30.20
2019-04-26T22:53:25.863Z,29.77
2019-04-26T22:56:32.577Z,23.57
2019-04-26T22:59:43.335Z,28.10
2019-04-26T23:02:50.139Z,17.00
2019-04-26T23:05:57.743Z,17.50
2019-04-26T23:09:07.354Z,22.77
2019-04-26T23:12:34.504Z,23.00
2019-04-26T23:16:08.574Z,19.03
2019-04-26T23:19:25.046Z,16.63
2019-04-26T23:22:35.258Z,21.03
2019-04-26T23:25:43.478Z,27.87
2019-04-26T23:28:51.141Z,21.80
2019-04-26T23:31:58.799Z,20.27
2019-04-26T23:35:06.508Z,18.23
2019-04-26T23:38:13.943Z,14.33
2019-04-26T23:41:23.445Z,16.10
2019-04-26T23:44:30.711Z,16.37
2019-04-26T23:47:39.060Z,12.00
2019-04-26T23:50:47.122Z,14.87
2019-04-26T23:53:57.686Z,15.37
2019-04-26T23:57:03.836Z,12.43
